Pagrindinis puslapis
METAR-TAF:

METAR-TAF

Oro uostai :

Juigalpa, Nikaragva

platuma: 12-06N, ilguma: 085-22W, Aukštis: 90 m

Dabartinis oras

Ataskaita buvo paskelbta 3 valandos ir 34 minutes, ne 23:00 UTC
Vėjas 4 kt iš Pietvakarių
Temperatūra 27°C
Drėgmė 89%
Slėgis 1009 hPa
Matomumas 10 km arba daugiau
Išsisklaidę debesys ne aukštis 2000 ft, Liūtiniai kamuoliniai debesys.
Išsisklaidę debesys ne aukštis 8000 ft
perkūnija

METAR: MNJU 162300Z 23004KT 9999 TS SCT020CB SCT080 27/25 Q1009 CB/4C

Laikas: 20:34 (02:34 UTC)


TAF: trūkstamas

Orai ataskaitas ir orų prognozės (METAR, TAF).

turimą stotys yra geltonos ir raudonos taškus žemėlapyje.

Perkelti pele per norėdami pamatyti stoties vardą.

Tada spustelėkite, norėdami matyti oro stebėjimo ir prognozės.

Norėdami pakeisti žemėlapį: spustelėkite ant žalios mygtukų su juodo kryžiaus žemyn,; žalią mygtuką su brūkšneliu, jei norite nutolinti; arba žalių rodyklių gretimoms žemėlapius.


METAR-TAF: